Terminal Aerodrome Forecast
Issued by NWS Wilmington, OH

Current Version | Previous Version | Text Only | Print | Product List | Glossary On
Versions: 1 2 3 4 5 6 7 8 9 10 11 12 13 14 15 16 17 18 19 20 21 22 23 24 25 26 27 28
000
FTUS41 KILN 161700
TAFCVG
TAF
KCVG 161740Z 1618/1724 10010KT P6SM BKN250
     FM170000 11006KT P6SM BKN250
     FM170900 14007KT P6SM BKN250
     FM171400 19010KT P6SM BKN250=

USA.gov is the U.S. government's official web portal to all federal, state and local government web resources and services.